sensor_id;sensor_type;location;lat;lon;timestamp;temperature;humidity
49855;DHT22;35752;52.164;21.244;2023-04-08T00:01:01;6.40;99.90
49855;DHT22;35752;52.164;21.244;2023-04-08T00:03:26;6.50;99.90
49855;DHT22;35752;52.164;21.244;2023-04-08T00:05:52;6.50;99.90
49855;DHT22;35752;52.164;21.244;2023-04-08T00:08:17;6.60;99.90
49855;DHT22;35752;52.164;21.244;2023-04-08T00:10:43;6.50;99.90
49855;DHT22;35752;52.164;21.244;2023-04-08T00:13:09;6.50;99.90
49855;DHT22;35752;52.164;21.244;2023-04-08T00:15:35;6.50;99.90
49855;DHT22;35752;52.164;21.244;2023-04-08T00:18:01;6.50;99.90
49855;DHT22;35752;52.164;21.244;2023-04-08T00:20:27;6.50;99.90
49855;DHT22;35752;52.164;21.244;2023-04-08T00:22:52;6.50;99.90
49855;DHT22;35752;52.164;21.244;2023-04-08T00:25:18;6.50;99.90
49855;DHT22;35752;52.164;21.244;2023-04-08T00:27:44;6.40;99.90
49855;DHT22;35752;52.164;21.244;2023-04-08T00:30:09;6.40;99.90
49855;DHT22;35752;52.164;21.244;2023-04-08T00:32:36;6.40;99.90
49855;DHT22;35752;52.164;21.244;2023-04-08T00:35:02;6.40;99.90
49855;DHT22;35752;52.164;21.244;2023-04-08T00:37:28;6.30;99.90
49855;DHT22;35752;52.164;21.244;2023-04-08T00:39:55;6.30;99.90
49855;DHT22;35752;52.164;21.244;2023-04-08T00:42:21;6.30;99.90
49855;DHT22;35752;52.164;21.244;2023-04-08T00:44:47;6.30;99.90
49855;DHT22;35752;52.164;21.244;2023-04-08T00:47:14;6.20;99.90
49855;DHT22;35752;52.164;21.244;2023-04-08T00:49:41;6.10;99.90
49855;DHT22;35752;52.164;21.244;2023-04-08T00:52:06;6.10;99.90
49855;DHT22;35752;52.164;21.244;2023-04-08T00:54:32;6.00;99.90
49855;DHT22;35752;52.164;21.244;2023-04-08T00:56:58;6.00;99.90
49855;DHT22;35752;52.164;21.244;2023-04-08T00:59:28;6.00;99.90
49855;DHT22;35752;52.164;21.244;2023-04-08T01:02:02;6.00;99.90
49855;DHT22;35752;52.164;21.244;2023-04-08T01:07:26;5.90;99.90
49855;DHT22;35752;52.164;21.244;2023-04-08T01:09:54;5.80;99.90
49855;DHT22;35752;52.164;21.244;2023-04-08T01:12:25;5.70;99.90
49855;DHT22;35752;52.164;21.244;2023-04-08T01:15:03;5.50;99.90
49855;DHT22;35752;52.164;21.244;2023-04-08T01:17:30;5.50;99.90
49855;DHT22;35752;52.164;21.244;2023-04-08T01:19:58;5.30;99.90
49855;DHT22;35752;52.164;21.244;2023-04-08T01:22:40;5.20;99.90
49855;DHT22;35752;52.164;21.244;2023-04-08T01:25:13;5.10;99.90
49855;DHT22;35752;52.164;21.244;2023-04-08T01:27:41;5.10;99.90
49855;DHT22;35752;52.164;21.244;2023-04-08T01:30:08;5.00;99.90
49855;DHT22;35752;52.164;21.244;2023-04-08T01:32:35;4.80;99.90
49855;DHT22;35752;52.164;21.244;2023-04-08T01:35:02;4.70;99.90
49855;DHT22;35752;52.164;21.244;2023-04-08T01:37:28;4.60;99.90
49855;DHT22;35752;52.164;21.244;2023-04-08T01:39:55;4.40;99.90
49855;DHT22;35752;52.164;21.244;2023-04-08T01:42:26;4.30;99.90
49855;DHT22;35752;52.164;21.244;2023-04-08T01:44:54;4.40;99.90
49855;DHT22;35752;52.164;21.244;2023-04-08T01:47:21;4.40;99.90
49855;DHT22;35752;52.164;21.244;2023-04-08T01:49:49;4.30;99.90
49855;DHT22;35752;52.164;21.244;2023-04-08T01:52:15;4.30;99.90
49855;DHT22;35752;52.164;21.244;2023-04-08T01:54:42;4.20;99.90
49855;DHT22;35752;52.164;21.244;2023-04-08T01:57:11;4.10;99.90
49855;DHT22;35752;52.164;21.244;2023-04-08T01:59:39;4.10;99.90
49855;DHT22;35752;52.164;21.244;2023-04-08T02:02:08;4.10;99.90
49855;DHT22;35752;52.164;21.244;2023-04-08T02:04:34;4.00;99.90
49855;DHT22;35752;52.164;21.244;2023-04-08T02:07:01;3.90;99.90
49855;DHT22;35752;52.164;21.244;2023-04-08T02:09:27;3.80;99.90
49855;DHT22;35752;52.164;21.244;2023-04-08T02:11:53;3.70;99.90
49855;DHT22;35752;52.164;21.244;2023-04-08T02:14:18;3.70;99.90
49855;DHT22;35752;52.164;21.244;2023-04-08T02:16:55;3.70;99.90
49855;DHT22;35752;52.164;21.244;2023-04-08T02:19:29;3.70;99.90
49855;DHT22;35752;52.164;21.244;2023-04-08T02:22:01;3.60;99.90
49855;DHT22;35752;52.164;21.244;2023-04-08T02:24:31;3.40;99.90
49855;DHT22;35752;52.164;21.244;2023-04-08T02:26:59;3.40;99.90
49855;DHT22;35752;52.164;21.244;2023-04-08T02:29:25;3.50;99.90
49855;DHT22;35752;52.164;21.244;2023-04-08T02:31:54;3.50;99.90
49855;DHT22;35752;52.164;21.244;2023-04-08T02:34:21;3.50;99.90
49855;DHT22;35752;52.164;21.244;2023-04-08T02:36:48;3.40;99.90
49855;DHT22;35752;52.164;21.244;2023-04-08T02:39:15;3.20;99.90
49855;DHT22;35752;52.164;21.244;2023-04-08T02:41:41;3.20;99.90
49855;DHT22;35752;52.164;21.244;2023-04-08T02:44:07;3.20;99.90
49855;DHT22;35752;52.164;21.244;2023-04-08T02:46:33;3.10;99.90
49855;DHT22;35752;52.164;21.244;2023-04-08T02:48:59;3.10;99.90
49855;DHT22;35752;52.164;21.244;2023-04-08T02:51:25;3.00;99.90
49855;DHT22;35752;52.164;21.244;2023-04-08T02:53:50;3.00;99.90
49855;DHT22;35752;52.164;21.244;2023-04-08T02:56:16;2.80;99.90
49855;DHT22;35752;52.164;21.244;2023-04-08T02:58:41;2.90;99.90
49855;DHT22;35752;52.164;21.244;2023-04-08T03:01:07;2.80;99.90
49855;DHT22;35752;52.164;21.244;2023-04-08T03:03:33;2.70;99.90
49855;DHT22;35752;52.164;21.244;2023-04-08T03:05:58;2.60;99.90
49855;DHT22;35752;52.164;21.244;2023-04-08T03:08:24;2.60;99.90
49855;DHT22;35752;52.164;21.244;2023-04-08T03:10:50;2.50;99.90
49855;DHT22;35752;52.164;21.244;2023-04-08T03:13:16;2.40;99.90
49855;DHT22;35752;52.164;21.244;2023-04-08T03:15:42;2.40;99.90
49855;DHT22;35752;52.164;21.244;2023-04-08T03:18:08;2.30;99.90
49855;DHT22;35752;52.164;21.244;2023-04-08T03:20:33;2.30;99.90
49855;DHT22;35752;52.164;21.244;2023-04-08T03:22:59;2.20;99.90
49855;DHT22;35752;52.164;21.244;2023-04-08T03:25:25;2.20;99.90
49855;DHT22;35752;52.164;21.244;2023-04-08T03:27:50;2.20;99.90
49855;DHT22;35752;52.164;21.244;2023-04-08T03:30:16;2.20;99.90
49855;DHT22;35752;52.164;21.244;2023-04-08T03:32:42;2.10;99.90
49855;DHT22;35752;52.164;21.244;2023-04-08T03:35:08;2.10;99.90
49855;DHT22;35752;52.164;21.244;2023-04-08T03:37:33;2.10;99.90
49855;DHT22;35752;52.164;21.244;2023-04-08T03:39:59;2.10;99.90
49855;DHT22;35752;52.164;21.244;2023-04-08T03:42:25;2.10;99.90
49855;DHT22;35752;52.164;21.244;2023-04-08T03:44:51;2.00;99.90
49855;DHT22;35752;52.164;21.244;2023-04-08T03:47:17;2.00;99.90
49855;DHT22;35752;52.164;21.244;2023-04-08T03:49:42;2.00;99.90
49855;DHT22;35752;52.164;21.244;2023-04-08T03:52:08;1.90;99.90
49855;DHT22;35752;52.164;21.244;2023-04-08T03:54:33;2.00;99.90
49855;DHT22;35752;52.164;21.244;2023-04-08T03:56:59;2.00;99.90
49855;DHT22;35752;52.164;21.244;2023-04-08T03:59:25;2.00;99.90
49855;DHT22;35752;52.164;21.244;2023-04-08T04:01:50;2.00;99.90
49855;DHT22;35752;52.164;21.244;2023-04-08T04:04:18;2.00;99.90
49855;DHT22;35752;52.164;21.244;2023-04-08T04:06:43;1.90;99.90
49855;DHT22;35752;52.164;21.244;2023-04-08T04:09:09;1.90;99.90
49855;DHT22;35752;52.164;21.244;2023-04-08T04:11:35;1.90;99.90
49855;DHT22;35752;52.164;21.244;2023-04-08T04:14:01;1.90;99.90
49855;DHT22;35752;52.164;21.244;2023-04-08T04:16:27;1.80;99.90
49855;DHT22;35752;52.164;21.244;2023-04-08T04:18:52;1.80;99.90
49855;DHT22;35752;52.164;21.244;2023-04-08T04:21:18;1.80;99.90
49855;DHT22;35752;52.164;21.244;2023-04-08T04:23:44;1.90;99.90
49855;DHT22;35752;52.164;21.244;2023-04-08T04:26:10;2.00;99.90
49855;DHT22;35752;52.164;21.244;2023-04-08T04:28:36;2.00;99.90
49855;DHT22;35752;52.164;21.244;2023-04-08T04:31:02;2.10;99.90
49855;DHT22;35752;52.164;21.244;2023-04-08T04:33:28;2.20;99.90
49855;DHT22;35752;52.164;21.244;2023-04-08T04:35:54;2.20;99.90
49855;DHT22;35752;52.164;21.244;2023-04-08T04:38:20;2.40;99.90
49855;DHT22;35752;52.164;21.244;2023-04-08T04:40:46;2.40;99.90
49855;DHT22;35752;52.164;21.244;2023-04-08T04:43:11;2.50;99.90
49855;DHT22;35752;52.164;21.244;2023-04-08T04:45:37;2.50;99.90
49855;DHT22;35752;52.164;21.244;2023-04-08T04:48:03;2.60;99.90
49855;DHT22;35752;52.164;21.244;2023-04-08T04:50:28;2.60;99.90
49855;DHT22;35752;52.164;21.244;2023-04-08T04:52:54;2.70;99.90
49855;DHT22;35752;52.164;21.244;2023-04-08T04:55:20;2.80;99.90
49855;DHT22;35752;52.164;21.244;2023-04-08T04:57:47;2.90;99.90
49855;DHT22;35752;52.164;21.244;2023-04-08T05:00:13;3.00;99.90
49855;DHT22;35752;52.164;21.244;2023-04-08T05:02:39;3.00;99.90
49855;DHT22;35752;52.164;21.244;2023-04-08T05:05:05;3.10;99.90
49855;DHT22;35752;52.164;21.244;2023-04-08T05:07:34;3.20;99.90
49855;DHT22;35752;52.164;21.244;2023-04-08T05:09:59;3.30;99.90
49855;DHT22;35752;52.164;21.244;2023-04-08T05:12:26;3.40;99.90
49855;DHT22;35752;52.164;21.244;2023-04-08T05:14:51;3.40;99.90
49855;DHT22;35752;52.164;21.244;2023-04-08T05:17:17;3.60;99.90
49855;DHT22;35752;52.164;21.244;2023-04-08T05:19:42;3.60;99.90
49855;DHT22;35752;52.164;21.244;2023-04-08T05:22:08;3.80;99.90
49855;DHT22;35752;52.164;21.244;2023-04-08T05:24:33;3.90;99.90
49855;DHT22;35752;52.164;21.244;2023-04-08T05:27:00;4.00;99.90
49855;DHT22;35752;52.164;21.244;2023-04-08T05:29:26;4.10;99.90
49855;DHT22;35752;52.164;21.244;2023-04-08T05:31:52;4.20;99.90
49855;DHT22;35752;52.164;21.244;2023-04-08T05:34:17;4.30;99.90
49855;DHT22;35752;52.164;21.244;2023-04-08T05:36:47;4.40;99.90
49855;DHT22;35752;52.164;21.244;2023-04-08T05:39:17;4.60;99.90
49855;DHT22;35752;52.164;21.244;2023-04-08T05:41:42;4.70;99.90
49855;DHT22;35752;52.164;21.244;2023-04-08T05:44:09;4.80;99.90
49855;DHT22;35752;52.164;21.244;2023-04-08T05:46:34;4.90;99.90
49855;DHT22;35752;52.164;21.244;2023-04-08T05:49:00;5.10;99.90
49855;DHT22;35752;52.164;21.244;2023-04-08T05:51:26;5.20;99.90
49855;DHT22;35752;52.164;21.244;2023-04-08T05:53:51;5.30;99.90
49855;DHT22;35752;52.164;21.244;2023-04-08T05:56:17;5.40;99.90
49855;DHT22;35752;52.164;21.244;2023-04-08T05:58:42;5.50;99.90
49855;DHT22;35752;52.164;21.244;2023-04-08T06:01:08;5.60;99.90
49855;DHT22;35752;52.164;21.244;2023-04-08T06:03:33;5.70;99.90
49855;DHT22;35752;52.164;21.244;2023-04-08T06:05:59;5.80;99.90
49855;DHT22;35752;52.164;21.244;2023-04-08T06:08:25;5.80;99.90
49855;DHT22;35752;52.164;21.244;2023-04-08T06:10:51;5.80;99.90
49855;DHT22;35752;52.164;21.244;2023-04-08T06:13:16;6.10;99.90
49855;DHT22;35752;52.164;21.244;2023-04-08T06:15:42;6.20;99.90
49855;DHT22;35752;52.164;21.244;2023-04-08T06:18:08;6.30;99.90
49855;DHT22;35752;52.164;21.244;2023-04-08T06:20:35;6.40;99.90
49855;DHT22;35752;52.164;21.244;2023-04-08T06:23:00;6.50;99.90
49855;DHT22;35752;52.164;21.244;2023-04-08T06:25:26;6.60;99.90
49855;DHT22;35752;52.164;21.244;2023-04-08T06:27:51;6.70;99.90
49855;DHT22;35752;52.164;21.244;2023-04-08T06:30:17;6.80;99.90
49855;DHT22;35752;52.164;21.244;2023-04-08T06:32:43;6.90;99.90
49855;DHT22;35752;52.164;21.244;2023-04-08T06:35:11;7.10;99.90
49855;DHT22;35752;52.164;21.244;2023-04-08T06:37:37;7.20;99.90
49855;DHT22;35752;52.164;21.244;2023-04-08T06:40:04;7.30;99.90
49855;DHT22;35752;52.164;21.244;2023-04-08T06:42:30;7.40;99.90
49855;DHT22;35752;52.164;21.244;2023-04-08T06:44:56;7.40;99.90
49855;DHT22;35752;52.164;21.244;2023-04-08T06:47:22;7.50;99.90
49855;DHT22;35752;52.164;21.244;2023-04-08T06:49:48;7.40;99.90
49855;DHT22;35752;52.164;21.244;2023-04-08T06:52:13;7.50;99.90
49855;DHT22;35752;52.164;21.244;2023-04-08T06:54:39;7.50;99.90
49855;DHT22;35752;52.164;21.244;2023-04-08T06:57:05;7.60;99.90
49855;DHT22;35752;52.164;21.244;2023-04-08T06:59:31;7.60;99.90
49855;DHT22;35752;52.164;21.244;2023-04-08T07:01:57;7.70;99.90
49855;DHT22;35752;52.164;21.244;2023-04-08T07:04:22;7.60;99.90
49855;DHT22;35752;52.164;21.244;2023-04-08T07:06:48;7.80;99.90
49855;DHT22;35752;52.164;21.244;2023-04-08T07:09:13;7.90;99.90
49855;DHT22;35752;52.164;21.244;2023-04-08T07:11:39;7.90;99.90
49855;DHT22;35752;52.164;21.244;2023-04-08T07:14:05;7.90;99.90
49855;DHT22;35752;52.164;21.244;2023-04-08T07:16:30;8.00;99.90
49855;DHT22;35752;52.164;21.244;2023-04-08T07:18:56;8.20;99.90
49855;DHT22;35752;52.164;21.244;2023-04-08T07:21:22;8.30;99.90
49855;DHT22;35752;52.164;21.244;2023-04-08T07:23:47;8.30;99.90
49855;DHT22;35752;52.164;21.244;2023-04-08T07:26:13;8.20;99.90
49855;DHT22;35752;52.164;21.244;2023-04-08T07:28:39;8.30;99.90
49855;DHT22;35752;52.164;21.244;2023-04-08T07:31:15;8.30;99.90
49855;DHT22;35752;52.164;21.244;2023-04-08T07:33:41;8.40;99.90
49855;DHT22;35752;52.164;21.244;2023-04-08T07:36:11;8.50;99.90
49855;DHT22;35752;52.164;21.244;2023-04-08T07:38:38;8.70;99.90
49855;DHT22;35752;52.164;21.244;2023-04-08T07:41:04;8.80;99.90
49855;DHT22;35752;52.164;21.244;2023-04-08T07:43:30;8.90;99.90
49855;DHT22;35752;52.164;21.244;2023-04-08T07:46:03;9.00;99.90
49855;DHT22;35752;52.164;21.244;2023-04-08T07:48:33;9.10;99.90
49855;DHT22;35752;52.164;21.244;2023-04-08T07:51:06;9.20;99.90
49855;DHT22;35752;52.164;21.244;2023-04-08T07:53:32;9.40;99.90
49855;DHT22;35752;52.164;21.244;2023-04-08T07:55:59;9.40;99.90
49855;DHT22;35752;52.164;21.244;2023-04-08T07:58:24;9.30;99.90
49855;DHT22;35752;52.164;21.244;2023-04-08T08:00:51;9.40;99.90
49855;DHT22;35752;52.164;21.244;2023-04-08T08:03:17;9.50;99.90
49855;DHT22;35752;52.164;21.244;2023-04-08T08:05:42;9.50;99.90
49855;DHT22;35752;52.164;21.244;2023-04-08T08:08:08;9.40;99.90
49855;DHT22;35752;52.164;21.244;2023-04-08T08:10:37;9.40;99.90
49855;DHT22;35752;52.164;21.244;2023-04-08T08:13:03;9.50;99.90
49855;DHT22;35752;52.164;21.244;2023-04-08T08:15:29;9.70;99.90
49855;DHT22;35752;52.164;21.244;2023-04-08T08:17:54;9.60;99.90
49855;DHT22;35752;52.164;21.244;2023-04-08T08:20:20;9.60;99.90
49855;DHT22;35752;52.164;21.244;2023-04-08T08:22:46;9.80;99.90
49855;DHT22;35752;52.164;21.244;2023-04-08T08:25:11;10.00;99.90
49855;DHT22;35752;52.164;21.244;2023-04-08T08:27:37;10.10;99.90
49855;DHT22;35752;52.164;21.244;2023-04-08T08:30:06;10.20;99.90
49855;DHT22;35752;52.164;21.244;2023-04-08T08:32:31;10.30;99.90
49855;DHT22;35752;52.164;21.244;2023-04-08T08:34:57;10.40;99.90
49855;DHT22;35752;52.164;21.244;2023-04-08T08:37:23;10.50;99.90
49855;DHT22;35752;52.164;21.244;2023-04-08T08:39:48;10.50;99.90
49855;DHT22;35752;52.164;21.244;2023-04-08T08:42:21;10.50;99.90
49855;DHT22;35752;52.164;21.244;2023-04-08T08:44:48;10.50;99.90
49855;DHT22;35752;52.164;21.244;2023-04-08T08:47:17;10.50;99.90
49855;DHT22;35752;52.164;21.244;2023-04-08T08:49:43;10.40;99.90
49855;DHT22;35752;52.164;21.244;2023-04-08T08:52:10;10.40;99.90
49855;DHT22;35752;52.164;21.244;2023-04-08T08:54:36;10.30;99.90
49855;DHT22;35752;52.164;21.244;2023-04-08T08:57:02;10.40;99.90
49855;DHT22;35752;52.164;21.244;2023-04-08T08:59:28;10.70;99.90
49855;DHT22;35752;52.164;21.244;2023-04-08T09:01:53;10.70;99.90
49855;DHT22;35752;52.164;21.244;2023-04-08T09:04:20;10.60;99.90
49855;DHT22;35752;52.164;21.244;2023-04-08T09:07:07;10.60;99.90
49855;DHT22;35752;52.164;21.244;2023-04-08T09:09:49;10.60;99.90
49855;DHT22;35752;52.164;21.244;2023-04-08T09:12:15;10.80;99.90
49855;DHT22;35752;52.164;21.244;2023-04-08T09:14:41;10.80;99.90
49855;DHT22;35752;52.164;21.244;2023-04-08T09:17:07;11.00;99.90
49855;DHT22;35752;52.164;21.244;2023-04-08T09:19:33;11.20;99.90
49855;DHT22;35752;52.164;21.244;2023-04-08T09:22:09;11.10;99.10
49855;DHT22;35752;52.164;21.244;2023-04-08T09:24:35;11.20;98.30
49855;DHT22;35752;52.164;21.244;2023-04-08T09:27:03;11.20;97.60
49855;DHT22;35752;52.164;21.244;2023-04-08T09:29:28;11.30;97.70
49855;DHT22;35752;52.164;21.244;2023-04-08T09:31:56;11.20;96.60
49855;DHT22;35752;52.164;21.244;2023-04-08T09:34:22;11.30;97.40
49855;DHT22;35752;52.164;21.244;2023-04-08T09:36:49;11.30;96.70
49855;DHT22;35752;52.164;21.244;2023-04-08T09:39:15;11.40;96.70
49855;DHT22;35752;52.164;21.244;2023-04-08T09:41:42;11.40;96.50
